Time;durP1;ratioP1;P1;durP2;ratioP2;P2;SDS_P1;SDS_P2;PMS_P1;PMS_P2;Temp;Humidity;BMP_temperature;BMP_pressure;BME280_temperature;BME280_humidity;BME280_pressure;Samples;Min_cycle;Max_cycle;Signal;HPM_P1;HPM_P2
2022/05/27 00:01:36;;;;;;;11.20;3.03;;;;;;;;;;4998822;28;20213;-60
2022/05/27 00:04:02;;;;;;;10.80;3.30;;;;;;;;;;5003472;28;20566;-59
2022/05/27 00:06:27;;;;;;;8.32;3.00;;;;;;;;;;4991507;28;20224;-59
2022/05/27 00:08:53;;;;;;;11.52;2.85;;;;;;;;;;4985939;28;20208;-59
2022/05/27 00:11:18;;;;;;;10.48;3.15;;;;;;;;;;4986363;28;20271;-59
2022/05/27 00:13:43;;;;;;;8.43;3.00;;;;;;;;;;4981552;28;20221;-59
2022/05/27 00:16:09;;;;;;;13.32;3.78;;;;;;;;;;4985592;28;20235;-59
2022/05/27 00:18:34;;;;;;;8.77;2.85;;;;;;;;;;5010816;28;20219;-59
2022/05/27 00:21:00;;;;;;;10.60;3.58;;;;;;;;;;4998323;28;20239;-59
2022/05/27 00:23:25;;;;;;;11.40;3.20;;;;;;;;;;4978489;28;20622;-60
2022/05/27 00:25:50;;;;;;;9.30;3.47;;;;;;;;;;4989072;28;20247;-59
2022/05/27 00:28:16;;;;;;;11.82;4.03;;;;;;;;;;4987189;28;20243;-59
2022/05/27 00:30:41;;;;;;;13.60;3.80;;;;;;;;;;4985183;28;20216;-59
2022/05/27 00:33:07;;;;;;;13.27;4.00;;;;;;;;;;4990152;28;20244;-59
2022/05/27 00:35:32;;;;;;;12.50;3.70;;;;;;;;;;4999084;28;20633;-59
2022/05/27 00:37:57;;;;;;;11.48;4.28;;;;;;;;;;4985097;28;20240;-60
2022/05/27 00:40:23;;;;;;;12.38;4.22;;;;;;;;;;4999767;28;20239;-61
2022/05/27 00:42:48;;;;;;;10.60;4.32;;;;;;;;;;4985237;28;20767;-60
2022/05/27 00:45:15;;;;;;;20.67;5.93;;;;;;;;;;4977920;28;20312;-60
2022/05/27 00:47:42;;;;;;;12.80;4.65;;;;;;;;;;4984209;28;20239;-60
2022/05/27 00:50:08;;;;;;;12.00;3.58;;;;;;;;;;4976241;28;20217;-62
2022/05/27 00:52:34;;;;;;;9.13;2.15;;;;;;;;;;4984791;28;20213;-62
2022/05/27 00:55:00;;;;;;;7.20;2.25;;;;;;;;;;4999471;28;20731;-62
2022/05/27 00:57:28;;;;;;;6.32;1.95;;;;;;;;;;4999081;28;20246;-62
2022/05/27 00:59:57;;;;;;;2.70;1.17;;;;;;;;;;5003243;28;20207;-61
2022/05/27 01:02:22;;;;;;;4.75;1.33;;;;;;;;;;4996895;28;20224;-62
2022/05/27 01:04:47;;;;;;;4.03;1.33;;;;;;;;;;4999501;28;20209;-61
2022/05/27 01:07:13;;;;;;;3.00;1.23;;;;;;;;;;4994655;28;20217;-61
2022/05/27 01:09:38;;;;;;;2.42;1.10;;;;;;;;;;4980450;28;20255;-61
2022/05/27 01:12:19;;;;;;;2.33;1.02;;;;;;;;;;4975145;28;20253;-61
2022/05/27 01:14:48;;;;;;;3.08;1.20;;;;;;;;;;4988090;28;20754;-61
2022/05/27 01:17:15;;;;;;;3.75;1.30;;;;;;;;;;5014504;28;20213;-61
2022/05/27 01:22:39;;;;;;;4.53;1.25;;;;;;;;;;4998314;28;20275;-61
2022/05/27 01:25:10;;;;;;;6.53;1.60;;;;;;;;;;5007237;28;20700;-61
2022/05/27 01:27:36;;;;;;;4.93;1.40;;;;;;;;;;4990733;28;20311;-62
2022/05/27 01:30:17;;;;;;;2.05;1.10;;;;;;;;;;4978464;28;20209;-62
2022/05/27 01:32:44;;;;;;;5.57;1.30;;;;;;;;;;4982669;28;20201;-62
2022/05/27 01:35:10;;;;;;;4.15;1.40;;;;;;;;;;5000598;28;20237;-62
2022/05/27 01:37:39;;;;;;;3.17;1.30;;;;;;;;;;4981948;28;20580;-62
2022/05/27 01:40:21;;;;;;;4.57;1.60;;;;;;;;;;4983080;28;20249;-62
2022/05/27 01:42:51;;;;;;;4.13;1.58;;;;;;;;;;5000865;28;20217;-62
2022/05/27 01:45:19;;;;;;;4.55;1.50;;;;;;;;;;5004511;28;20275;-62
2022/05/27 01:47:45;;;;;;;4.35;1.85;;;;;;;;;;5000645;28;20273;-61
2022/05/27 01:50:15;;;;;;;6.35;1.92;;;;;;;;;;4983436;28;20225;-62
2022/05/27 01:52:44;;;;;;;6.13;2.00;;;;;;;;;;5010552;28;20648;-62
2022/05/27 01:55:12;;;;;;;6.22;1.73;;;;;;;;;;5006137;28;20812;-61
2022/05/27 01:57:45;;;;;;;3.70;1.75;;;;;;;;;;4997462;28;20205;-61
2022/05/27 02:00:18;;;;;;;5.15;1.90;;;;;;;;;;4999205;28;20327;-62
2022/05/27 02:02:44;;;;;;;6.97;2.30;;;;;;;;;;4991857;28;20553;-61
2022/05/27 02:05:10;;;;;;;5.63;2.20;;;;;;;;;;4998387;28;21314;-62
2022/05/27 02:07:36;;;;;;;6.53;2.38;;;;;;;;;;4982942;28;20224;-61
2022/05/27 02:10:04;;;;;;;6.15;2.22;;;;;;;;;;5001874;28;20567;-61
2022/05/27 02:12:30;;;;;;;6.78;2.30;;;;;;;;;;5000040;28;20216;-61
2022/05/27 02:14:59;;;;;;;6.57;2.22;;;;;;;;;;4995665;28;20233;-62
2022/05/27 02:17:27;;;;;;;9.63;2.90;;;;;;;;;;4979295;28;20213;-62
2022/05/27 02:19:56;;;;;;;7.45;2.22;;;;;;;;;;5009042;28;20497;-62
2022/05/27 02:22:24;;;;;;;4.53;2.05;;;;;;;;;;4997317;28;20238;-62
2022/05/27 02:24:52;;;;;;;5.85;2.15;;;;;;;;;;4983316;28;20643;-62
2022/05/27 02:27:20;;;;;;;6.88;2.08;;;;;;;;;;4986015;28;20729;-62
2022/05/27 02:29:52;;;;;;;7.15;2.40;;;;;;;;;;5016319;28;20240;-62
2022/05/27 02:32:26;;;;;;;8.18;2.80;;;;;;;;;;4997762;28;20214;-61
2022/05/27 02:35:11;;;;;;;6.35;2.28;;;;;;;;;;4989610;28;20754;-62
2022/05/27 02:37:44;;;;;;;5.47;2.00;;;;;;;;;;4978597;28;20209;-62
2022/05/27 02:40:11;;;;;;;6.43;2.28;;;;;;;;;;4988021;28;20221;-61
2022/05/27 02:42:37;;;;;;;5.95;2.20;;;;;;;;;;5006422;28;20247;-62
2022/05/27 02:45:09;;;;;;;4.97;2.10;;;;;;;;;;4978950;28;20300;-61
2022/05/27 02:47:37;;;;;;;5.63;2.58;;;;;;;;;;5016292;28;20212;-62
2022/05/27 02:50:10;;;;;;;7.28;2.20;;;;;;;;;;4996262;28;20217;-61
2022/05/27 02:52:46;;;;;;;7.85;2.15;;;;;;;;;;5015100;28;20212;-61
2022/05/27 02:55:11;;;;;;;6.30;2.40;;;;;;;;;;4982035;28;20371;-61
2022/05/27 02:57:36;;;;;;;7.80;2.90;;;;;;;;;;4981996;28;20304;-61
2022/05/27 03:00:04;;;;;;;10.13;3.08;;;;;;;;;;4978298;28;20288;-61
2022/05/27 03:02:29;;;;;;;7.95;2.40;;;;;;;;;;4974821;28;20383;-61
2022/05/27 03:04:55;;;;;;;9.07;2.47;;;;;;;;;;4974715;28;20224;-61
2022/05/27 03:07:29;;;;;;;6.60;2.53;;;;;;;;;;4977127;28;20309;-61
2022/05/27 03:09:59;;;;;;;10.13;2.90;;;;;;;;;;5015617;28;20220;-61
2022/05/27 03:12:30;;;;;;;9.05;3.10;;;;;;;;;;5016229;28;20226;-61
2022/05/27 03:15:00;;;;;;;7.78;2.78;;;;;;;;;;5000388;28;20720;-62
2022/05/27 03:17:25;;;;;;;8.05;3.03;;;;;;;;;;5004299;28;20217;-61
2022/05/27 03:20:09;;;;;;;8.35;2.90;;;;;;;;;;4981734;28;20260;-61
2022/05/27 03:22:34;;;;;;;8.52;2.83;;;;;;;;;;4993421;28;20553;-62
2022/05/27 03:25:17;;;;;;;9.45;3.00;;;;;;;;;;4974832;28;20370;-62
2022/05/27 03:27:44;;;;;;;11.40;2.67;;;;;;;;;;4978498;28;20474;-61
2022/05/27 03:30:16;;;;;;;7.43;2.65;;;;;;;;;;4992322;28;20224;-61
2022/05/27 03:33:03;;;;;;;8.60;2.78;;;;;;;;;;4990468;28;20221;-61
2022/05/27 03:35:46;;;;;;;11.00;3.40;;;;;;;;;;4984997;28;20707;-61
2022/05/27 03:38:11;;;;;;;6.63;2.95;;;;;;;;;;5004683;28;20299;-61
2022/05/27 03:40:44;;;;;;;7.55;3.00;;;;;;;;;;4982117;28;20683;-61
2022/05/27 03:43:10;;;;;;;7.03;2.65;;;;;;;;;;5002760;28;20711;-61
2022/05/27 03:45:46;;;;;;;9.35;2.88;;;;;;;;;;5002666;28;20335;-61
2022/05/27 03:48:11;;;;;;;8.27;3.20;;;;;;;;;;4992221;28;20987;-61
2022/05/27 03:50:36;;;;;;;9.05;3.17;;;;;;;;;;4995439;28;20220;-61
2022/05/27 03:53:02;;;;;;;8.23;2.88;;;;;;;;;;4992624;28;20295;-61
2022/05/27 03:55:27;;;;;;;7.85;3.05;;;;;;;;;;4982317;28;20269;-61
2022/05/27 03:57:52;;;;;;;8.65;3.00;;;;;;;;;;4982177;28;20205;-61
2022/05/27 04:00:18;;;;;;;8.95;3.00;;;;;;;;;;4995551;28;20235;-61
2022/05/27 04:02:43;;;;;;;7.55;2.80;;;;;;;;;;4981449;28;20216;-61
2022/05/27 04:05:09;;;;;;;12.20;3.13;;;;;;;;;;4981389;28;20271;-61
2022/05/27 04:07:34;;;;;;;10.55;3.45;;;;;;;;;;4978608;28;20221;-61
2022/05/27 04:10:00;;;;;;;8.77;3.00;;;;;;;;;;4974359;28;20224;-61
2022/05/27 04:12:25;;;;;;;9.95;3.63;;;;;;;;;;4980177;28;20323;-61
2022/05/27 04:14:51;;;;;;;9.15;3.22;;;;;;;;;;4975120;28;20236;-61
2022/05/27 04:17:31;;;;;;;7.20;3.10;;;;;;;;;;4982001;28;20248;-62
2022/05/27 04:19:57;;;;;;;9.05;3.00;;;;;;;;;;5000782;28;20215;-62
2022/05/27 04:22:23;;;;;;;11.98;3.20;;;;;;;;;;4981105;28;20213;-61
2022/05/27 04:24:48;;;;;;;9.67;3.10;;;;;;;;;;4981742;28;20448;-61
2022/05/27 04:27:14;;;;;;;9.95;2.88;;;;;;;;;;4996718;28;20695;-61
2022/05/27 04:29:40;;;;;;;9.57;3.00;;;;;;;;;;5008993;28;20204;-61
2022/05/27 04:32:05;;;;;;;10.68;3.67;;;;;;;;;;5010023;28;20216;-63
2022/05/27 04:34:31;;;;;;;12.00;2.75;;;;;;;;;;5009765;28;20221;-64
2022/05/27 04:36:56;;;;;;;8.80;2.80;;;;;;;;;;5003507;28;20534;-64
2022/05/27 04:39:22;;;;;;;8.43;2.70;;;;;;;;;;4993140;28;20227;-63
2022/05/27 04:41:47;;;;;;;8.93;2.67;;;;;;;;;;5006829;28;20897;-63
2022/05/27 04:44:12;;;;;;;8.70;2.72;;;;;;;;;;5015478;28;20231;-63
2022/05/27 04:46:38;;;;;;;11.05;2.67;;;;;;;;;;5011606;28;20209;-64
2022/05/27 04:49:03;;;;;;;8.80;2.58;;;;;;;;;;5017947;28;20760;-63
2022/05/27 04:51:28;;;;;;;8.40;2.67;;;;;;;;;;5013860;28;20212;-64
2022/05/27 04:53:53;;;;;;;9.13;2.53;;;;;;;;;;5008881;28;20228;-67
2022/05/27 04:56:19;;;;;;;11.13;3.17;;;;;;;;;;5008797;28;20328;-66
2022/05/27 04:58:44;;;;;;;7.53;2.40;;;;;;;;;;5010428;28;20695;-65
2022/05/27 05:01:09;;;;;;;8.57;2.42;;;;;;;;;;5005813;28;20212;-63
2022/05/27 05:03:35;;;;;;;9.23;2.78;;;;;;;;;;4998443;28;20233;-63
2022/05/27 05:06:00;;;;;;;8.07;2.50;;;;;;;;;;4994396;28;20209;-62
2022/05/27 05:08:28;;;;;;;9.75;2.60;;;;;;;;;;4993789;28;20390;-64
2022/05/27 05:10:54;;;;;;;9.15;2.53;;;;;;;;;;5014297;28;20219;-65
2022/05/27 05:13:19;;;;;;;11.38;2.70;;;;;;;;;;4998122;28;20221;-61
2022/05/27 05:15:44;;;;;;;11.60;2.65;;;;;;;;;;4996637;28;20244;-62
2022/05/27 05:18:10;;;;;;;11.15;2.78;;;;;;;;;;5012344;28;20262;-59
2022/05/27 05:20:35;;;;;;;9.73;2.40;;;;;;;;;;5023716;28;20748;-59
2022/05/27 05:23:00;;;;;;;8.60;2.42;;;;;;;;;;5024643;28;20213;-60
2022/05/27 05:25:26;;;;;;;10.63;2.72;;;;;;;;;;5013096;28;20571;-62
2022/05/27 05:27:52;;;;;;;11.30;2.35;;;;;;;;;;5027118;28;20208;-59
2022/05/27 05:30:18;;;;;;;9.30;2.80;;;;;;;;;;5013111;28;20594;-59
2022/05/27 05:32:43;;;;;;;8.00;2.33;;;;;;;;;;5015373;28;20211;-59
2022/05/27 05:35:09;;;;;;;7.35;2.30;;;;;;;;;;5012068;28;20228;-59
2022/05/27 05:37:34;;;;;;;12.38;2.40;;;;;;;;;;5014212;28;20248;-60
2022/05/27 05:40:00;;;;;;;9.80;2.30;;;;;;;;;;5009179;28;20358;-59
2022/05/27 05:42:25;;;;;;;11.52;2.40;;;;;;;;;;5008211;28;20236;-59
2022/05/27 05:44:50;;;;;;;10.10;2.65;;;;;;;;;;5011459;28;20212;-60
2022/05/27 05:47:16;;;;;;;9.02;2.00;;;;;;;;;;4998703;28;20220;-59
2022/05/27 05:49:41;;;;;;;9.60;2.20;;;;;;;;;;4993413;28;20312;-60
2022/05/27 05:52:06;;;;;;;9.77;2.53;;;;;;;;;;4994849;28;20224;-60
2022/05/27 05:54:32;;;;;;;8.82;2.00;;;;;;;;;;5014600;28;20224;-60
2022/05/27 05:56:59;;;;;;;10.20;2.40;;;;;;;;;;5003860;28;20213;-60
2022/05/27 05:59:24;;;;;;;12.30;2.40;;;;;;;;;;4991125;28;20549;-60
2022/05/27 06:01:50;;;;;;;7.53;2.15;;;;;;;;;;5008298;28;20224;-60
2022/05/27 06:04:15;;;;;;;10.32;2.83;;;;;;;;;;4997852;28;20730;-60
2022/05/27 06:06:40;;;;;;;8.98;2.40;;;;;;;;;;5006223;28;20209;-59
2022/05/27 06:09:06;;;;;;;11.40;2.42;;;;;;;;;;5000782;28;20213;-60
2022/05/27 06:11:31;;;;;;;9.18;2.38;;;;;;;;;;5008392;28;20680;-59
2022/05/27 06:13:57;;;;;;;10.20;2.50;;;;;;;;;;5000997;28;20217;-60
2022/05/27 06:16:22;;;;;;;7.88;1.90;;;;;;;;;;5013907;28;20225;-60
2022/05/27 06:18:48;;;;;;;12.90;2.10;;;;;;;;;;4998791;28;20563;-60
2022/05/27 06:21:13;;;;;;;8.73;2.00;;;;;;;;;;4991509;28;20209;-60
2022/05/27 06:23:38;;;;;;;10.85;2.20;;;;;;;;;;4993672;28;20205;-59
2022/05/27 06:26:05;;;;;;;11.30;2.22;;;;;;;;;;5009339;28;20231;-60
2022/05/27 06:36:42;;;;;;;10.30;2.00;;;;;;;;;;4994926;28;20275;-60
2022/05/27 06:39:08;;;;;;;12.90;2.88;;;;;;;;;;5011730;28;20208;-60
2022/05/27 06:41:33;;;;;;;11.40;2.42;;;;;;;;;;5007012;28;20574;-60
2022/05/27 06:43:58;;;;;;;8.60;2.30;;;;;;;;;;5008396;28;20691;-60
2022/05/27 06:46:23;;;;;;;11.02;2.40;;;;;;;;;;5002228;28;20209;-60
2022/05/27 06:48:49;;;;;;;8.40;2.28;;;;;;;;;;4990564;28;20311;-61
2022/05/27 06:51:14;;;;;;;13.48;2.40;;;;;;;;;;5007327;28;20248;-60
2022/05/27 06:53:39;;;;;;;9.30;2.22;;;;;;;;;;4992449;28;20291;-60
2022/05/27 06:56:05;;;;;;;14.05;2.47;;;;;;;;;;4991351;28;20227;-60
2022/05/27 06:58:30;;;;;;;10.27;2.35;;;;;;;;;;4999457;28;20213;-60
2022/05/27 07:00:55;;;;;;;10.35;2.22;;;;;;;;;;5007898;28;20303;-60
2022/05/27 07:03:21;;;;;;;10.50;2.28;;;;;;;;;;5001973;28;20216;-61
2022/05/27 07:05:46;;;;;;;9.80;2.17;;;;;;;;;;5001698;28;20787;-60
2022/05/27 07:08:12;;;;;;;12.00;2.10;;;;;;;;;;4995362;28;20352;-60
2022/05/27 07:10:38;;;;;;;10.25;2.35;;;;;;;;;;4991625;28;20209;-60
2022/05/27 07:13:03;;;;;;;9.68;2.10;;;;;;;;;;4997306;28;20219;-61
2022/05/27 07:15:30;;;;;;;11.95;2.38;;;;;;;;;;4995645;28;20221;-60
2022/05/27 07:17:56;;;;;;;9.93;2.20;;;;;;;;;;5007044;28;20684;-60
2022/05/27 07:20:22;;;;;;;9.82;1.88;;;;;;;;;;5006513;28;20209;-60
2022/05/27 07:22:47;;;;;;;14.65;2.25;;;;;;;;;;4996813;28;20220;-60
2022/05/27 07:25:13;;;;;;;11.00;2.33;;;;;;;;;;5003322;28;20227;-61
2022/05/27 07:27:39;;;;;;;10.02;2.08;;;;;;;;;;5003799;28;20267;-60
2022/05/27 07:30:04;;;;;;;15.52;3.15;;;;;;;;;;4990687;28;20237;-60
2022/05/27 07:32:33;;;;;;;11.90;2.30;;;;;;;;;;5000649;28;20300;-60
2022/05/27 07:34:58;;;;;;;10.38;2.20;;;;;;;;;;5003190;28;20228;-60
2022/05/27 07:37:24;;;;;;;9.35;1.83;;;;;;;;;;4998573;28;20212;-60
2022/05/27 07:39:49;;;;;;;10.40;2.20;;;;;;;;;;5008025;28;20216;-61
2022/05/27 07:42:14;;;;;;;10.45;2.10;;;;;;;;;;4992476;28;20244;-60
2022/05/27 07:44:40;;;;;;;14.40;2.40;;;;;;;;;;5009828;28;20212;-60
2022/05/27 07:47:06;;;;;;;14.20;2.30;;;;;;;;;;5002329;28;20673;-60
2022/05/27 07:49:31;;;;;;;12.00;2.58;;;;;;;;;;5010826;28;20638;-61
2022/05/27 07:51:56;;;;;;;11.65;2.22;;;;;;;;;;5010387;28;20209;-61
2022/05/27 07:54:22;;;;;;;12.98;3.03;;;;;;;;;;5017009;28;20277;-61
2022/05/27 07:56:47;;;;;;;9.65;1.90;;;;;;;;;;5007396;28;20217;-60
2022/05/27 07:59:12;;;;;;;12.75;2.25;;;;;;;;;;5009755;28;20262;-60
2022/05/27 08:01:39;;;;;;;10.57;2.53;;;;;;;;;;5010824;28;20211;-60
2022/05/27 08:04:04;;;;;;;10.20;2.60;;;;;;;;;;5005383;28;20224;-61
2022/05/27 08:06:29;;;;;;;14.07;2.42;;;;;;;;;;4997798;28;20213;-60
2022/05/27 08:08:55;;;;;;;12.93;2.67;;;;;;;;;;5011032;28;20294;-60
2022/05/27 08:11:20;;;;;;;12.00;2.45;;;;;;;;;;5000158;28;20561;-60
2022/05/27 08:13:45;;;;;;;15.07;2.85;;;;;;;;;;4996334;28;20527;-61
2022/05/27 08:16:10;;;;;;;10.70;2.75;;;;;;;;;;4997062;28;20217;-60
2022/05/27 08:18:37;;;;;;;12.45;2.50;;;;;;;;;;5002977;28;20296;-61
2022/05/27 08:21:02;;;;;;;14.93;3.30;;;;;;;;;;5009823;28;20680;-61
2022/05/27 08:23:28;;;;;;;10.45;2.45;;;;;;;;;;4999417;28;20307;-60
2022/05/27 08:25:55;;;;;;;13.85;2.90;;;;;;;;;;5005102;28;20687;-60
2022/05/27 08:28:24;;;;;;;13.55;2.72;;;;;;;;;;4991884;28;21930;-60
2022/05/27 08:30:49;;;;;;;14.35;2.75;;;;;;;;;;4992295;28;20213;-60
2022/05/27 08:33:14;;;;;;;10.25;2.08;;;;;;;;;;5004870;28;20299;-60
2022/05/27 08:38:29;;;;;;;10.13;2.33;;;;;;;;;;5012891;28;20568;-60
2022/05/27 08:41:03;;;;;;;12.18;3.00;;;;;;;;;;5013589;28;20251;-61
2022/05/27 08:43:30;;;;;;;12.60;2.72;;;;;;;;;;5013338;28;20229;-60
2022/05/27 08:45:59;;;;;;;15.35;2.47;;;;;;;;;;5014445;28;20205;-60
2022/05/27 08:48:24;;;;;;;9.20;2.17;;;;;;;;;;5006116;28;20268;-61
2022/05/27 08:50:51;;;;;;;10.88;2.30;;;;;;;;;;4994902;28;20209;-60
2022/05/27 08:53:23;;;;;;;9.65;2.33;;;;;;;;;;5013513;28;20228;-60
2022/05/27 09:01:20;;;;;;;11.23;2.35;;;;;;;;;;5009404;28;20224;-61
2022/05/27 09:03:46;;;;;;;12.20;2.25;;;;;;;;;;5018180;28;20213;-60
2022/05/27 09:06:12;;;;;;;9.95;2.00;;;;;;;;;;5012270;28;20623;-60
2022/05/27 09:08:38;;;;;;;10.52;2.10;;;;;;;;;;5006444;28;20233;-60
2022/05/27 09:11:11;;;;;;;11.45;2.67;;;;;;;;;;5028623;28;20282;-60
2022/05/27 09:13:40;;;;;;;9.88;1.92;;;;;;;;;;5004905;28;20212;-60
2022/05/27 09:16:27;;;;;;;12.85;2.20;;;;;;;;;;4997424;28;20217;-61
2022/05/27 09:18:58;;;;;;;9.32;2.05;;;;;;;;;;5003253;28;20757;-60
2022/05/27 09:21:29;;;;;;;11.82;2.53;;;;;;;;;;5028031;28;20220;-60
2022/05/27 09:23:58;;;;;;;9.65;2.30;;;;;;;;;;5014931;28;20224;-60
2022/05/27 09:26:26;;;;;;;7.05;2.05;;;;;;;;;;4995172;28;20272;-61
2022/05/27 09:29:03;;;;;;;10.80;2.20;;;;;;;;;;4997925;28;20220;-61
2022/05/27 09:31:35;;;;;;;8.13;2.13;;;;;;;;;;4993853;28;20213;-61
2022/05/27 09:34:01;;;;;;;9.70;2.30;;;;;;;;;;5011427;28;20217;-61
2022/05/27 09:36:35;;;;;;;9.85;2.30;;;;;;;;;;4999244;28;20211;-62
2022/05/27 09:39:01;;;;;;;10.02;2.17;;;;;;;;;;5027830;28;20212;-60
2022/05/27 09:41:35;;;;;;;8.82;2.10;;;;;;;;;;4997361;28;20209;-61
2022/05/27 09:44:19;;;;;;;12.13;2.10;;;;;;;;;;5026572;28;20239;-61
2022/05/27 09:46:44;;;;;;;12.85;3.13;;;;;;;;;;4997231;28;20249;-62
2022/05/27 09:49:10;;;;;;;9.88;2.13;;;;;;;;;;5000730;28;20290;-61
2022/05/27 09:51:35;;;;;;;11.32;2.40;;;;;;;;;;5012755;28;20286;-61
2022/05/27 09:54:04;;;;;;;8.57;2.28;;;;;;;;;;4998159;28;20776;-62
2022/05/27 09:56:32;;;;;;;11.15;2.45;;;;;;;;;;5016766;28;20675;-61
2022/05/27 09:58:57;;;;;;;9.27;1.90;;;;;;;;;;5016047;28;20209;-61
2022/05/27 10:01:24;;;;;;;10.50;2.45;;;;;;;;;;5008238;28;20304;-61
2022/05/27 10:04:00;;;;;;;10.77;2.30;;;;;;;;;;5008621;28;20210;-61
2022/05/27 10:06:26;;;;;;;9.98;2.40;;;;;;;;;;5001744;28;20311;-63
2022/05/27 10:08:53;;;;;;;12.00;2.38;;;;;;;;;;4992957;28;20274;-62
2022/05/27 10:11:19;;;;;;;12.18;2.40;;;;;;;;;;5026248;28;20212;-61
2022/05/27 10:13:45;;;;;;;8.98;1.85;;;;;;;;;;5010524;28;20216;-61
2022/05/27 10:16:11;;;;;;;10.85;2.30;;;;;;;;;;5001479;28;20264;-62
2022/05/27 10:18:38;;;;;;;9.60;2.05;;;;;;;;;;4993317;28;20233;-62
2022/05/27 10:21:07;;;;;;;10.20;2.30;;;;;;;;;;5005340;28;20216;-62
2022/05/27 10:23:35;;;;;;;13.15;2.25;;;;;;;;;;5027378;28;20559;-61
2022/05/27 10:26:19;;;;;;;9.88;2.33;;;;;;;;;;5008603;28;20300;-62
2022/05/27 10:28:44;;;;;;;7.68;2.08;;;;;;;;;;5011374;28;20267;-62
2022/05/27 10:31:16;;;;;;;8.90;2.50;;;;;;;;;;5027487;28;20212;-62
2022/05/27 10:33:44;;;;;;;11.32;1.85;;;;;;;;;;5011025;28;20216;-62
2022/05/27 10:36:27;;;;;;;10.07;2.60;;;;;;;;;;5010340;28;20603;-62
2022/05/27 10:38:55;;;;;;;8.45;2.05;;;;;;;;;;5011166;28;20213;-63
2022/05/27 10:41:24;;;;;;;9.35;2.22;;;;;;;;;;5009931;28;20660;-63
2022/05/27 10:44:08;;;;;;;10.63;2.15;;;;;;;;;;5027420;28;20640;-62
2022/05/27 10:46:36;;;;;;;8.48;2.17;;;;;;;;;;5010442;28;20226;-63
2022/05/27 10:49:21;;;;;;;9.73;2.33;;;;;;;;;;5020137;28;20336;-62
2022/05/27 10:51:48;;;;;;;8.65;1.83;;;;;;;;;;5011680;28;20286;-61
2022/05/27 10:54:30;;;;;;;8.75;2.33;;;;;;;;;;5025563;28;20398;-61
2022/05/27 11:02:43;;;;;;;7.43;1.92;;;;;;;;;;4997297;28;20675;-62
2022/05/27 11:05:19;;;;;;;7.90;2.05;;;;;;;;;;5006518;28;20675;-63
2022/05/27 11:07:48;;;;;;;8.27;2.05;;;;;;;;;;5018596;28;20649;-61
2022/05/27 11:10:20;;;;;;;7.60;1.92;;;;;;;;;;5000192;28;20263;-62
2022/05/27 11:15:47;;;;;;;8.15;2.15;;;;;;;;;;5010056;28;20275;-62
2022/05/27 11:18:39;;;;;;;11.18;2.15;;;;;;;;;;5008464;28;20221;-63
2022/05/27 11:21:15;;;;;;;10.10;2.60;;;;;;;;;;5011944;28;20208;-62
2022/05/27 11:23:55;;;;;;;9.77;2.13;;;;;;;;;;5025829;28;20208;-62
2022/05/27 11:26:37;;;;;;;11.70;2.08;;;;;;;;;;5010747;28;20613;-62
2022/05/27 11:29:15;;;;;;;12.20;2.30;;;;;;;;;;5010615;28;20209;-61
2022/05/27 11:31:52;;;;;;;8.38;2.40;;;;;;;;;;5013864;28;20227;-62
2022/05/27 11:34:31;;;;;;;9.30;1.85;;;;;;;;;;5009471;28;20232;-62
2022/05/27 11:37:05;;;;;;;8.93;2.00;;;;;;;;;;5010590;28;20254;-62
2022/05/27 11:39:51;;;;;;;10.15;1.90;;;;;;;;;;5002563;28;20212;-62
2022/05/27 11:42:16;;;;;;;10.38;2.22;;;;;;;;;;4993408;28;20216;-64
2022/05/27 11:44:41;;;;;;;11.88;2.47;;;;;;;;;;5010106;28;20355;-62
2022/05/27 11:47:09;;;;;;;9.57;2.20;;;;;;;;;;5010572;28;20287;-63
2022/05/27 11:49:39;;;;;;;11.02;2.30;;;;;;;;;;4997557;28;20219;-62
2022/05/27 11:52:05;;;;;;;8.48;2.30;;;;;;;;;;5013863;28;20212;-62
2022/05/27 11:54:35;;;;;;;12.65;2.50;;;;;;;;;;5006270;28;20584;-62
2022/05/27 11:57:05;;;;;;;12.30;2.20;;;;;;;;;;5024887;28;20208;-63
2022/05/27 11:59:49;;;;;;;11.48;2.30;;;;;;;;;;5003341;28;20232;-62
2022/05/27 12:02:17;;;;;;;11.40;2.00;;;;;;;;;;5007052;28;20217;-62
2022/05/27 12:04:52;;;;;;;8.80;2.28;;;;;;;;;;5019804;28;20235;-62
2022/05/27 12:07:34;;;;;;;8.43;2.45;;;;;;;;;;5008027;28;20743;-62
2022/05/27 12:10:06;;;;;;;9.10;2.00;;;;;;;;;;5020614;28;20571;-62
2022/05/27 12:12:32;;;;;;;9.38;2.25;;;;;;;;;;5016529;28;20212;-62
2022/05/27 12:15:01;;;;;;;14.27;2.70;;;;;;;;;;5002631;28;20271;-62
2022/05/27 12:17:31;;;;;;;11.55;2.35;;;;;;;;;;5011195;28;20572;-62
2022/05/27 12:19:59;;;;;;;12.00;2.20;;;;;;;;;;4994763;28;20213;-61
2022/05/27 12:22:27;;;;;;;8.98;2.05;;;;;;;;;;5024884;28;20208;-62
2022/05/27 12:24:54;;;;;;;9.82;2.15;;;;;;;;;;5014592;28;20223;-62
2022/05/27 12:27:19;;;;;;;11.35;2.00;;;;;;;;;;5021598;28;20274;-61
2022/05/27 12:29:46;;;;;;;8.68;1.90;;;;;;;;;;5001443;28;20216;-61
2022/05/27 12:32:12;;;;;;;11.57;2.85;;;;;;;;;;5013289;28;20694;-62
2022/05/27 12:34:39;;;;;;;9.88;2.38;;;;;;;;;;5012376;28;20220;-62
2022/05/27 12:37:11;;;;;;;8.65;1.88;;;;;;;;;;5012531;28;20296;-62
2022/05/27 12:39:37;;;;;;;10.02;2.40;;;;;;;;;;5012052;28;20216;-62
2022/05/27 12:42:13;;;;;;;11.05;2.33;;;;;;;;;;5020339;28;20612;-62
2022/05/27 12:44:39;;;;;;;10.07;2.10;;;;;;;;;;5029685;28;20208;-62
2022/05/27 12:47:05;;;;;;;10.45;2.15;;;;;;;;;;5012774;28;20266;-63
2022/05/27 12:49:34;;;;;;;9.63;2.33;;;;;;;;;;5006859;28;20217;-61
2022/05/27 12:51:59;;;;;;;11.88;2.35;;;;;;;;;;4994697;28;20270;-60
2022/05/27 12:54:43;;;;;;;9.82;2.30;;;;;;;;;;5027278;28;20236;-61
2022/05/27 13:03:02;;;;;;;8.70;2.10;;;;;;;;;;4994265;28;20223;-62
2022/05/27 13:05:47;;;;;;;9.13;2.10;;;;;;;;;;5009625;28;20213;-62
2022/05/27 13:08:19;;;;;;;14.35;3.13;;;;;;;;;;4998139;28;20560;-62
2022/05/27 13:10:45;;;;;;;9.45;2.25;;;;;;;;;;5023144;28;20213;-63
2022/05/27 13:13:11;;;;;;;12.57;2.00;;;;;;;;;;5005830;28;20216;-61
2022/05/27 13:15:39;;;;;;;11.32;2.40;;;;;;;;;;5008378;28;20586;-61
2022/05/27 13:18:08;;;;;;;11.27;2.33;;;;;;;;;;4998337;28;20675;-61
2022/05/27 13:20:54;;;;;;;12.77;2.25;;;;;;;;;;5009325;28;20213;-61
2022/05/27 13:23:21;;;;;;;7.60;2.20;;;;;;;;;;4991949;28;20209;-61
2022/05/27 13:25:57;;;;;;;10.65;2.03;;;;;;;;;;5022947;28;20205;-61
2022/05/27 13:28:25;;;;;;;9.75;1.80;;;;;;;;;;5024013;28;20543;-61
2022/05/27 13:30:52;;;;;;;9.32;2.13;;;;;;;;;;5028008;28;20288;-61
2022/05/27 13:33:18;;;;;;;12.35;1.92;;;;;;;;;;5012883;28;20617;-61
2022/05/27 13:35:44;;;;;;;13.93;2.10;;;;;;;;;;5027675;28;20248;-61
2022/05/27 13:38:10;;;;;;;9.32;2.08;;;;;;;;;;5011491;28;20251;-61
2022/05/27 13:40:36;;;;;;;9.82;1.95;;;;;;;;;;5013511;28;20208;-61
2022/05/27 13:43:08;;;;;;;9.38;2.28;;;;;;;;;;5004587;28;20227;-61
2022/05/27 13:45:42;;;;;;;12.73;2.50;;;;;;;;;;5013429;28;20292;-62
2022/05/27 13:48:18;;;;;;;10.80;1.85;;;;;;;;;;5012114;28;20216;-61
2022/05/27 13:50:44;;;;;;;11.82;2.25;;;;;;;;;;4998973;28;20312;-62
2022/05/27 13:53:24;;;;;;;9.23;1.98;;;;;;;;;;5001904;28;20213;-62
2022/05/27 13:55:50;;;;;;;11.25;2.25;;;;;;;;;;5013204;28;20223;-62
2022/05/27 13:58:15;;;;;;;12.48;2.20;;;;;;;;;;5016806;28;20205;-63
2022/05/27 14:00:43;;;;;;;10.50;2.03;;;;;;;;;;4997390;28;20247;-61
2022/05/27 14:03:08;;;;;;;10.52;1.90;;;;;;;;;;5018190;28;20282;-62
2022/05/27 14:05:33;;;;;;;10.93;2.42;;;;;;;;;;4992461;28;20676;-61
2022/05/27 14:08:00;;;;;;;10.80;1.98;;;;;;;;;;4993515;28;20217;-62
2022/05/27 14:10:26;;;;;;;10.30;2.00;;;;;;;;;;5000567;28;20217;-62
2022/05/27 14:12:53;;;;;;;9.52;1.98;;;;;;;;;;4990899;28;20201;-62
2022/05/27 14:15:19;;;;;;;9.27;1.90;;;;;;;;;;5006683;28;20768;-63
2022/05/27 14:17:45;;;;;;;9.93;2.10;;;;;;;;;;5012561;28;20212;-62
2022/05/27 14:20:13;;;;;;;7.90;1.90;;;;;;;;;;5011068;28;20213;-62
2022/05/27 14:22:45;;;;;;;12.35;1.88;;;;;;;;;;5005179;28;20232;-63
2022/05/27 14:25:21;;;;;;;12.68;2.17;;;;;;;;;;5013566;28;20336;-61
2022/05/27 14:27:48;;;;;;;8.93;1.98;;;;;;;;;;5017514;28;20227;-62
2022/05/27 14:30:15;;;;;;;11.05;2.33;;;;;;;;;;5025720;28;20213;-61
2022/05/27 14:32:40;;;;;;;11.00;1.80;;;;;;;;;;5006294;28;20205;-61
2022/05/27 14:35:06;;;;;;;10.38;2.10;;;;;;;;;;5011110;28;20224;-62
2022/05/27 14:37:32;;;;;;;11.70;2.10;;;;;;;;;;5027794;28;20215;-62
2022/05/27 14:40:00;;;;;;;8.85;2.13;;;;;;;;;;5010806;28;20235;-61
2022/05/27 14:42:25;;;;;;;13.55;2.22;;;;;;;;;;5013556;28;20212;-62
2022/05/27 14:44:50;;;;;;;10.75;1.90;;;;;;;;;;5027083;28;20217;-61
2022/05/27 14:47:23;;;;;;;12.18;2.20;;;;;;;;;;5010763;28;20601;-62
2022/05/27 14:49:50;;;;;;;11.70;2.40;;;;;;;;;;5026720;28;20260;-62
2022/05/27 14:52:17;;;;;;;12.88;2.22;;;;;;;;;;4995605;28;20631;-62
2022/05/27 14:54:43;;;;;;;14.18;2.22;;;;;;;;;;5011017;28;20224;-63
2022/05/27 14:57:19;;;;;;;14.30;2.63;;;;;;;;;;5022415;28;20902;-61
2022/05/27 14:59:47;;;;;;;11.70;1.98;;;;;;;;;;5006683;28;20218;-63
2022/05/27 15:02:22;;;;;;;8.27;1.95;;;;;;;;;;4998821;28;20217;-62
2022/05/27 15:04:55;;;;;;;11.52;2.00;;;;;;;;;;4999947;28;20220;-61
2022/05/27 15:07:21;;;;;;;9.52;1.77;;;;;;;;;;5010244;28;20222;-61
2022/05/27 15:09:56;;;;;;;8.82;1.60;;;;;;;;;;5012458;28;20216;-61
2022/05/27 15:12:23;;;;;;;10.32;2.47;;;;;;;;;;5009752;28;20231;-62
2022/05/27 15:14:48;;;;;;;10.57;1.95;;;;;;;;;;5000430;28;20315;-61
2022/05/27 15:17:21;;;;;;;10.80;1.73;;;;;;;;;;4984492;28;20430;-61